Terminal Aerodrome Forecast
Issued by NWS

Current Version | Previous Version | Text Only | Print | Product List | Glossary On
Versions: 1 2 3 4 5 6 7 8 9 10 11 12
000
FTUS43 KGRR 261740
TAFJXN
TAF
KJXN 261740Z 2618/2718 16014G24KT P6SM SCT050 BKN200
     FM270200 17013KT 5SM -RA BR VCTS BKN015CB
     FM270600 14010G20KT 5SM -SHRA BR VCTS OVC025CB=

USA.gov is the U.S. government's official web portal to all federal, state and local government web resources and services.